createdAt,value
2022-10-04T00:02:34.147Z,68.38
2022-10-04T00:05:07.646Z,67.38
2022-10-04T00:07:38.594Z,67.98
2022-10-04T00:10:23.267Z,67.75
2022-10-04T00:12:58.687Z,67.52
2022-10-04T00:15:32.796Z,67.41
2022-10-04T00:18:11.706Z,67.14
2022-10-04T00:20:50.615Z,67.55
2022-10-04T00:23:24.162Z,67.48
2022-10-04T00:26:01.719Z,67.70
2022-10-04T00:28:30.756Z,67.65
2022-10-04T00:31:20.966Z,67.68
2022-10-04T00:33:50.185Z,68.25
2022-10-04T00:36:39.930Z,68.28
2022-10-04T00:39:09.442Z,68.09
2022-10-04T00:41:48.429Z,67.54
2022-10-04T00:44:45.798Z,67.50
2022-10-04T00:47:48.026Z,68.16
2022-10-04T00:50:21.699Z,68.21
2022-10-04T00:52:57.007Z,67.99
2022-10-04T00:55:33.101Z,68.20
2022-10-04T00:58:02.557Z,68.03
2022-10-04T01:00:33.332Z,68.12
2022-10-04T01:03:15.276Z,67.76
2022-10-04T01:05:47.106Z,67.68
2022-10-04T01:08:28.832Z,67.97
2022-10-04T01:11:00.146Z,67.74
2022-10-04T01:13:56.109Z,67.13
2022-10-04T01:16:28.833Z,67.92
2022-10-04T01:18:56.295Z,67.85
2022-10-04T01:21:28.426Z,67.66
2022-10-04T01:23:57.958Z,68.00
2022-10-04T01:26:31.654Z,68.45
2022-10-04T01:29:36.959Z,68.11
2022-10-04T01:32:03.657Z,68.59
2022-10-04T01:34:30.727Z,68.65
2022-10-04T01:36:59.909Z,68.23
2022-10-04T01:39:28.317Z,68.47
2022-10-04T01:42:20.087Z,68.23
2022-10-04T01:44:55.366Z,68.36
2022-10-04T01:47:35.516Z,68.45
2022-10-04T01:50:15.647Z,68.75
2022-10-04T01:52:48.391Z,68.23
2022-10-04T01:55:20.514Z,68.28
2022-10-04T01:57:55.140Z,67.84
2022-10-04T02:00:24.466Z,68.62
2022-10-04T02:03:03.480Z,67.98
2022-10-04T02:05:45.077Z,68.49
2022-10-04T02:08:18.487Z,68.60
2022-10-04T02:10:47.000Z,68.54
2022-10-04T02:13:21.641Z,68.64
2022-10-04T02:15:49.805Z,68.56
2022-10-04T02:18:22.537Z,68.54
2022-10-04T02:20:51.170Z,68.61
2022-10-04T02:23:21.136Z,68.33
2022-10-04T02:25:47.929Z,68.23
2022-10-04T02:28:16.210Z,68.57
2022-10-04T02:31:07.888Z,68.35
2022-10-04T02:33:40.152Z,68.50
2022-10-04T02:36:09.396Z,68.60
2022-10-04T02:39:00.819Z,68.55
2022-10-04T02:41:38.041Z,68.65
2022-10-04T02:44:17.805Z,68.76
2022-10-04T02:46:52.543Z,68.87
2022-10-04T02:49:28.449Z,68.81
2022-10-04T02:52:12.801Z,68.32
2022-10-04T02:54:52.696Z,68.28
2022-10-04T02:57:22.141Z,68.67
2022-10-04T02:59:49.612Z,68.88
2022-10-04T03:02:29.814Z,68.60
2022-10-04T03:05:04.589Z,68.78
2022-10-04T03:07:36.259Z,68.69
2022-10-04T03:10:09.183Z,68.53
2022-10-04T03:12:37.422Z,68.47
2022-10-04T03:15:06.335Z,68.61
2022-10-04T03:17:34.245Z,68.96
2022-10-04T03:20:01.199Z,69.18
2022-10-04T03:22:27.765Z,69.05
2022-10-04T03:24:57.172Z,69.19
2022-10-04T03:27:31.370Z,68.80
2022-10-04T03:29:59.496Z,69.33
2022-10-04T03:32:30.586Z,69.06
2022-10-04T03:35:01.463Z,68.78
2022-10-04T03:37:30.797Z,68.59
2022-10-04T03:39:58.706Z,68.82
2022-10-04T03:42:28.860Z,69.09
2022-10-04T03:45:07.136Z,68.76
2022-10-04T03:47:41.008Z,69.32
2022-10-04T03:50:29.421Z,68.95
2022-10-04T03:53:06.339Z,69.45
2022-10-04T03:55:38.693Z,68.74
2022-10-04T03:58:06.594Z,68.86
2022-10-04T04:00:40.125Z,69.22
2022-10-04T04:03:15.202Z,69.01
2022-10-04T04:05:46.886Z,68.52
2022-10-04T04:08:32.502Z,68.82
2022-10-04T04:11:02.880Z,68.78
2022-10-04T04:13:45.244Z,68.79
2022-10-04T04:16:12.223Z,68.55
2022-10-04T04:18:43.407Z,68.52
2022-10-04T04:21:16.159Z,67.99
2022-10-04T04:23:48.668Z,68.04
2022-10-04T04:26:42.119Z,68.37
2022-10-04T04:29:26.278Z,68.29
2022-10-04T04:31:59.179Z,68.14
2022-10-04T04:34:30.890Z,68.48
2022-10-04T04:37:00.232Z,68.28
2022-10-04T04:39:34.226Z,68.38
2022-10-04T04:42:05.902Z,68.43
2022-10-04T04:44:33.450Z,68.72
2022-10-04T04:47:00.557Z,68.68
2022-10-04T04:49:31.247Z,68.36
2022-10-04T04:51:58.058Z,68.51
2022-10-04T04:54:27.743Z,68.43
2022-10-04T04:56:56.533Z,68.51
2022-10-04T04:59:27.092Z,68.41
2022-10-04T05:01:53.788Z,68.56
2022-10-04T05:04:24.410Z,68.66
2022-10-04T05:07:06.367Z,68.88
2022-10-04T05:09:40.864Z,68.49
2022-10-04T05:12:17.042Z,68.54
2022-10-04T05:14:52.805Z,68.76
2022-10-04T05:17:23.149Z,68.79
2022-10-04T05:19:51.566Z,68.39
2022-10-04T05:22:22.867Z,68.62
2022-10-04T05:24:57.115Z,68.54
2022-10-04T05:27:29.583Z,68.39
2022-10-04T05:30:04.963Z,68.58
2022-10-04T05:32:56.177Z,69.03
2022-10-04T05:35:23.549Z,68.80
2022-10-04T05:38:00.103Z,69.01
2022-10-04T05:40:50.192Z,69.00
2022-10-04T05:43:35.480Z,68.94
2022-10-04T05:46:20.446Z,69.53
2022-10-04T05:48:52.402Z,69.31
2022-10-04T05:51:30.092Z,69.77
2022-10-04T05:54:04.118Z,69.86
2022-10-04T05:56:30.761Z,69.73
2022-10-04T05:59:12.591Z,69.85
2022-10-04T06:01:42.666Z,70.27
2022-10-04T06:04:42.527Z,70.44
2022-10-04T06:07:23.111Z,70.31
2022-10-04T06:10:11.569Z,70.51
2022-10-04T06:12:57.899Z,69.94
2022-10-04T06:16:01.885Z,69.16
2022-10-04T06:18:58.384Z,69.06
2022-10-04T06:21:27.841Z,68.92
2022-10-04T06:24:03.611Z,68.51
2022-10-04T06:26:40.910Z,68.63
2022-10-04T06:29:13.636Z,68.08
2022-10-04T06:32:05.413Z,67.96
2022-10-04T06:34:35.826Z,68.14
2022-10-04T06:37:05.736Z,67.59
2022-10-04T06:39:38.330Z,67.49
2022-10-04T06:42:34.169Z,67.15
2022-10-04T06:45:30.197Z,67.18
2022-10-04T06:47:56.684Z,66.58
2022-10-04T06:53:43.484Z,66.12
2022-10-04T06:56:55.845Z,66.62
2022-10-04T06:59:44.915Z,66.48
2022-10-04T07:02:17.855Z,67.06
2022-10-04T07:05:14.521Z,66.67
2022-10-04T07:07:47.623Z,66.48
2022-10-04T07:10:33.196Z,66.52
2022-10-04T07:13:09.548Z,65.33
2022-10-04T07:16:02.469Z,64.87
2022-10-04T07:18:42.202Z,64.65
2022-10-04T07:21:14.562Z,64.38
2022-10-04T07:24:04.624Z,64.83
2022-10-04T07:26:43.653Z,64.82
2022-10-04T07:29:22.687Z,64.55
2022-10-04T07:32:02.976Z,64.56
2022-10-04T07:34:31.727Z,64.38
2022-10-04T07:37:06.652Z,63.76
2022-10-04T07:39:39.379Z,63.36
2022-10-04T07:42:30.950Z,62.84
2022-10-04T07:45:29.126Z,62.63
2022-10-04T07:48:18.022Z,62.04
2022-10-04T07:51:09.338Z,61.17
2022-10-04T07:53:57.771Z,60.37
2022-10-04T07:56:37.298Z,60.06
2022-10-04T07:59:25.837Z,59.65
2022-10-04T08:02:11.818Z,59.87
2022-10-04T08:04:49.749Z,59.04
2022-10-04T08:07:25.971Z,59.21
2022-10-04T08:10:14.548Z,58.92
2022-10-04T08:13:12.472Z,59.15
2022-10-04T08:15:46.214Z,59.37
2022-10-04T08:18:45.573Z,58.81
2022-10-04T08:21:43.452Z,59.29
2022-10-04T08:24:30.441Z,58.71
2022-10-04T08:27:38.259Z,58.66
2022-10-04T08:30:11.058Z,57.97
2022-10-04T08:32:56.544Z,57.52
2022-10-04T08:35:33.364Z,56.94
2022-10-04T08:38:35.458Z,56.78
2022-10-04T08:41:27.142Z,56.69
2022-10-04T08:44:29.064Z,56.70
2022-10-04T08:46:59.354Z,56.29
2022-10-04T08:49:39.711Z,56.19
2022-10-04T08:52:18.562Z,56.32
2022-10-04T08:54:57.127Z,56.15
2022-10-04T08:58:01.660Z,55.68
2022-10-04T09:03:42.767Z,54.70
2022-10-04T09:06:31.583Z,54.71
2022-10-04T09:09:21.094Z,54.08
2022-10-04T09:12:14.368Z,53.51
2022-10-04T09:14:51.533Z,53.72
2022-10-04T09:17:23.027Z,53.42
2022-10-04T09:20:09.287Z,52.91
2022-10-04T09:22:49.223Z,52.61
2022-10-04T09:25:34.744Z,52.41
2022-10-04T09:28:20.721Z,51.95
2022-10-04T09:30:56.564Z,51.27
2022-10-04T09:33:42.601Z,50.10
2022-10-04T09:36:24.490Z,48.34
2022-10-04T09:39:29.534Z,48.93
2022-10-04T09:42:33.640Z,48.88
2022-10-04T09:45:15.787Z,48.07
2022-10-04T09:47:51.698Z,41.72
2022-10-04T09:50:42.246Z,32.03
2022-10-04T09:53:28.245Z,28.65
2022-10-04T09:56:16.141Z,26.79
2022-10-04T09:59:08.975Z,25.56
2022-10-04T10:01:51.247Z,26.02
2022-10-04T10:04:39.241Z,26.14
2022-10-04T10:07:36.141Z,23.91
2022-10-04T10:10:39.205Z,23.87
2022-10-04T10:13:44.639Z,24.38
2022-10-04T10:16:29.847Z,24.55
2022-10-04T10:19:28.189Z,25.84
2022-10-04T10:22:28.926Z,25.79
2022-10-04T10:25:11.242Z,25.33
2022-10-04T10:27:58.204Z,25.38
2022-10-04T10:30:35.567Z,27.15
2022-10-04T10:33:04.994Z,31.32
2022-10-04T10:36:01.050Z,33.61
2022-10-04T10:38:48.360Z,32.96
2022-10-04T10:41:22.793Z,34.90
2022-10-04T10:44:02.209Z,35.07
2022-10-04T10:46:38.299Z,34.25
2022-10-04T10:49:22.275Z,33.23
2022-10-04T10:52:25.996Z,32.66
2022-10-04T10:55:11.192Z,35.48
2022-10-04T10:58:09.144Z,35.36
2022-10-04T11:00:44.780Z,31.34
2022-10-04T11:03:14.596Z,28.83
2022-10-04T11:06:13.957Z,29.02
2022-10-04T11:09:18.284Z,28.45
2022-10-04T11:11:50.725Z,27.68
2022-10-04T11:14:35.583Z,26.24
2022-10-04T11:17:35.000Z,23.63
2022-10-04T11:20:16.829Z,21.96
2022-10-04T11:23:11.462Z,19.80
2022-10-04T11:25:57.567Z,19.50
2022-10-04T11:28:46.505Z,17.66
2022-10-04T11:31:32.531Z,19.35
2022-10-04T11:34:18.557Z,18.49
2022-10-04T11:36:57.039Z,17.21
2022-10-04T11:39:23.770Z,18.27
2022-10-04T11:42:12.122Z,19.52
2022-10-04T11:45:02.660Z,20.38
2022-10-04T11:47:45.879Z,20.56
2022-10-04T11:50:41.840Z,19.53
2022-10-04T11:53:27.441Z,19.04
2022-10-04T11:56:17.185Z,17.97
2022-10-04T11:58:58.324Z,17.34
2022-10-04T12:02:18.299Z,16.41
2022-10-04T12:05:07.705Z,15.90
2022-10-04T12:07:46.439Z,14.92
2022-10-04T12:10:34.134Z,15.11
2022-10-04T12:13:28.892Z,15.27
2022-10-04T12:16:27.659Z,14.99
2022-10-04T12:19:32.005Z,15.57
2022-10-04T12:22:25.150Z,19.64
2022-10-04T12:25:29.501Z,23.91
2022-10-04T12:28:26.931Z,27.60
2022-10-04T12:31:29.209Z,30.61
2022-10-04T12:34:02.592Z,32.30
2022-10-04T12:36:57.845Z,34.44
2022-10-04T12:39:36.802Z,34.99
2022-10-04T12:42:16.213Z,35.95
2022-10-04T12:44:56.766Z,36.88
2022-10-04T12:47:57.639Z,38.43
2022-10-04T12:50:31.121Z,38.78
2022-10-04T12:53:34.827Z,39.93
2022-10-04T12:56:21.853Z,40.39
2022-10-04T12:59:07.097Z,40.25
2022-10-04T13:01:41.058Z,40.14
2022-10-04T13:04:14.451Z,41.19
2022-10-04T13:07:07.082Z,41.93
2022-10-04T13:10:23.548Z,41.96
2022-10-04T13:13:11.159Z,42.57
2022-10-04T13:19:10.038Z,42.37
2022-10-04T13:21:36.630Z,41.98
2022-10-04T13:24:53.966Z,41.59
2022-10-04T13:27:52.696Z,41.86
2022-10-04T13:30:26.499Z,42.82
2022-10-04T13:32:56.858Z,42.81
2022-10-04T13:35:54.781Z,42.97
2022-10-04T13:38:40.171Z,43.00
2022-10-04T13:41:25.431Z,42.00
2022-10-04T13:44:17.956Z,42.31
2022-10-04T13:47:18.808Z,42.02
2022-10-04T13:50:26.241Z,41.75
2022-10-04T13:53:53.778Z,42.28
2022-10-04T13:56:42.375Z,41.99
2022-10-04T13:59:35.839Z,42.12
2022-10-04T14:02:40.334Z,42.01
2022-10-04T14:05:37.841Z,41.82
2022-10-04T14:08:04.364Z,41.73
2022-10-04T14:10:49.832Z,41.35
2022-10-04T14:13:41.224Z,41.99
2022-10-04T14:16:37.915Z,42.34
2022-10-04T14:19:34.908Z,42.38
2022-10-04T14:22:32.415Z,42.98
2022-10-04T14:25:31.079Z,42.80
2022-10-04T14:28:39.928Z,42.85
2022-10-04T14:31:37.037Z,42.79
2022-10-04T14:34:57.032Z,43.38
2022-10-04T14:37:38.725Z,43.19
2022-10-04T14:40:43.057Z,43.70
2022-10-04T14:43:48.375Z,43.49
2022-10-04T14:46:31.333Z,43.42
2022-10-04T14:49:14.410Z,44.17
2022-10-04T14:52:06.763Z,44.15
2022-10-04T14:54:45.597Z,44.12
2022-10-04T14:57:32.919Z,43.74
2022-10-04T15:00:12.145Z,44.17
2022-10-04T15:03:05.031Z,44.36
2022-10-04T15:05:53.373Z,44.83
2022-10-04T15:08:24.698Z,44.50
2022-10-04T15:11:14.580Z,44.33
2022-10-04T15:14:06.175Z,44.70
2022-10-04T15:16:55.203Z,44.94
2022-10-04T15:19:21.724Z,44.37
2022-10-04T15:21:59.756Z,44.52
2022-10-04T15:24:28.200Z,44.20
2022-10-04T15:27:16.690Z,43.64
2022-10-04T15:30:23.280Z,43.21
2022-10-04T15:33:25.618Z,43.38
2022-10-04T15:36:30.479Z,43.67
2022-10-04T15:39:06.446Z,43.73
2022-10-04T15:41:45.820Z,44.73
2022-10-04T15:44:58.133Z,44.74
2022-10-04T15:48:13.603Z,44.66
2022-10-04T15:51:47.235Z,44.68
2022-10-04T15:58:58.660Z,45.68
2022-10-04T16:06:31.061Z,46.16
2022-10-04T16:10:15.571Z,46.77
2022-10-04T16:13:07.119Z,46.69
2022-10-04T16:16:03.817Z,47.11
2022-10-04T16:26:02.804Z,47.88
2022-10-04T16:33:37.358Z,48.67
2022-10-04T16:41:00.794Z,48.89
2022-10-04T16:43:35.806Z,49.17
2022-10-04T16:46:37.643Z,49.44
2022-10-04T16:50:10.935Z,49.88
2022-10-04T16:53:29.082Z,49.51
2022-10-04T16:55:57.802Z,49.89
2022-10-04T16:58:46.783Z,49.88
2022-10-04T17:01:28.549Z,49.88
2022-10-04T17:04:05.258Z,50.12
2022-10-04T17:11:09.080Z,50.83
2022-10-04T17:14:09.789Z,50.83
2022-10-04T17:17:00.250Z,51.22
2022-10-04T17:23:11.682Z,51.62
2022-10-04T17:29:17.476Z,51.73
2022-10-04T17:32:32.954Z,52.14
2022-10-04T17:35:33.121Z,52.29
2022-10-04T17:38:18.047Z,52.60
2022-10-04T17:41:22.581Z,52.71
2022-10-04T17:44:27.538Z,53.42
2022-10-04T17:47:57.062Z,54.01
2022-10-04T17:51:14.964Z,54.49
2022-10-04T17:54:20.858Z,54.64
2022-10-04T17:57:11.671Z,54.89
2022-10-04T18:00:07.640Z,55.01
2022-10-04T18:03:08.958Z,54.76
2022-10-04T18:06:03.633Z,55.45
2022-10-04T18:09:02.579Z,55.51
2022-10-04T18:11:47.585Z,55.37
2022-10-04T18:15:14.206Z,55.54
2022-10-04T18:17:50.759Z,55.89
2022-10-04T18:20:27.978Z,56.39
2022-10-04T18:23:22.329Z,55.96
2022-10-04T18:25:52.410Z,56.42
2022-10-04T18:28:26.927Z,56.20
2022-10-04T18:31:20.804Z,56.44
2022-10-04T18:37:05.043Z,57.20
2022-10-04T18:39:55.469Z,56.86
2022-10-04T18:42:37.424Z,56.96
2022-10-04T18:45:33.021Z,56.97
2022-10-04T18:48:16.689Z,56.90
2022-10-04T18:50:50.476Z,56.95
2022-10-04T18:53:39.529Z,57.01
2022-10-04T18:56:14.485Z,57.49
2022-10-04T18:59:06.482Z,57.43
2022-10-04T19:02:02.501Z,57.64
2022-10-04T19:04:58.064Z,58.41
2022-10-04T19:08:11.261Z,58.45
2022-10-04T19:10:50.958Z,58.99
2022-10-04T19:13:48.937Z,58.80
2022-10-04T19:16:33.067Z,59.32
2022-10-04T19:19:37.154Z,59.45
2022-10-04T19:22:57.651Z,60.11
2022-10-04T19:29:26.894Z,60.25
2022-10-04T19:32:28.060Z,60.27
2022-10-04T19:35:05.906Z,60.36
2022-10-04T19:38:26.388Z,60.55
2022-10-04T19:41:45.219Z,60.71
2022-10-04T19:47:42.647Z,61.35
2022-10-04T19:50:24.856Z,61.43
2022-10-04T19:53:24.203Z,61.52
2022-10-04T19:56:01.340Z,61.62
2022-10-04T19:59:13.680Z,61.78
2022-10-04T20:01:48.277Z,61.79
2022-10-04T20:04:38.043Z,61.85
2022-10-04T20:07:20.994Z,61.68
2022-10-04T20:10:30.634Z,62.05
2022-10-04T20:13:25.799Z,62.01
2022-10-04T20:16:20.644Z,61.73
2022-10-04T20:19:15.137Z,61.73
2022-10-04T20:21:49.897Z,62.23
2022-10-04T20:27:30.873Z,62.14
2022-10-04T20:30:07.446Z,62.58
2022-10-04T20:32:40.918Z,62.01
2022-10-04T20:35:16.607Z,61.98
2022-10-04T20:38:13.633Z,62.25
2022-10-04T20:40:47.224Z,62.27
2022-10-04T20:43:23.401Z,62.14
2022-10-04T20:45:58.642Z,62.01
2022-10-04T20:48:39.927Z,62.18
2022-10-04T20:51:25.996Z,62.89
2022-10-04T20:54:06.668Z,62.51
2022-10-04T20:56:35.060Z,62.78
2022-10-04T20:59:04.850Z,62.50
2022-10-04T21:01:54.344Z,62.72
2022-10-04T21:04:50.883Z,62.70
2022-10-04T21:08:08.095Z,63.14
2022-10-04T21:10:45.192Z,63.03
2022-10-04T21:13:48.762Z,62.70
2022-10-04T21:17:02.999Z,63.03
2022-10-04T21:19:57.962Z,62.86
2022-10-04T21:22:44.036Z,63.16
2022-10-04T21:26:10.076Z,63.43
2022-10-04T21:29:01.076Z,62.90
2022-10-04T21:31:31.236Z,63.00
2022-10-04T21:34:20.225Z,62.96
2022-10-04T21:37:23.282Z,63.49
2022-10-04T21:46:20.682Z,63.64
2022-10-04T21:49:20.919Z,63.40
2022-10-04T21:52:02.012Z,63.52
2022-10-04T21:54:36.441Z,63.62
2022-10-04T21:57:07.406Z,63.73
2022-10-04T21:59:37.945Z,63.83
2022-10-04T22:02:11.024Z,63.71
2022-10-04T22:04:42.402Z,64.04
2022-10-04T22:07:13.245Z,64.56
2022-10-04T22:13:14.619Z,64.28
2022-10-04T22:16:08.625Z,64.72
2022-10-04T22:18:44.823Z,64.98
2022-10-04T22:24:28.914Z,64.23
2022-10-04T22:27:30.571Z,64.87
2022-10-04T22:33:00.551Z,64.87
2022-10-04T22:39:20.469Z,64.48
2022-10-04T22:42:02.097Z,64.89
2022-10-04T22:44:43.271Z,64.74
2022-10-04T22:47:23.631Z,65.19
2022-10-04T22:49:53.542Z,64.34
2022-10-04T22:58:40.803Z,64.73
2022-10-04T23:01:22.744Z,65.03
2022-10-04T23:03:50.373Z,65.08
2022-10-04T23:06:17.507Z,65.35
2022-10-04T23:08:44.762Z,65.41
2022-10-04T23:11:11.770Z,65.19
2022-10-04T23:13:38.648Z,64.76
2022-10-04T23:16:20.999Z,65.12
2022-10-04T23:18:47.660Z,65.15
2022-10-04T23:21:20.697Z,64.86
2022-10-04T23:23:48.332Z,65.25
2022-10-04T23:26:27.280Z,65.08
2022-10-04T23:28:53.844Z,65.43
2022-10-04T23:31:24.147Z,65.09
2022-10-04T23:33:53.263Z,65.76
2022-10-04T23:36:20.405Z,65.83
2022-10-04T23:38:55.941Z,65.52
2022-10-04T23:41:22.588Z,65.75
2022-10-04T23:43:49.450Z,65.45
2022-10-04T23:46:19.647Z,66.47
2022-10-04T23:48:46.971Z,66.50
2022-10-04T23:51:18.534Z,66.53
2022-10-04T23:53:49.071Z,66.82
2022-10-04T23:56:24.986Z,67.10
2022-10-04T23:58:54.945Z,67.58
